sensor_id;sensor_type;location;lat;lon;timestamp;P1;durP1;ratioP1;P2;durP2;ratioP2
21979;SDS011;11154;48.558;9.234;2022-09-27T00:00:10;0.30;;;0.30;;
21979;SDS011;11154;48.558;9.234;2022-09-27T00:02:13;0.60;;;0.40;;
21979;SDS011;11154;48.558;9.234;2022-09-27T00:04:15;0.45;;;0.40;;
21979;SDS011;11154;48.558;9.234;2022-09-27T00:06:18;0.70;;;0.30;;
21979;SDS011;11154;48.558;9.234;2022-09-27T00:08:23;0.32;;;0.20;;
21979;SDS011;11154;48.558;9.234;2022-09-27T00:10:25;0.55;;;0.38;;
21979;SDS011;11154;48.558;9.234;2022-09-27T00:12:28;4.70;;;0.60;;
21979;SDS011;11154;48.558;9.234;2022-09-27T00:14:29;0.35;;;0.30;;
21979;SDS011;11154;48.558;9.234;2022-09-27T00:16:33;0.98;;;0.50;;
21979;SDS011;11154;48.558;9.234;2022-09-27T00:18:36;0.50;;;0.40;;
21979;SDS011;11154;48.558;9.234;2022-09-27T00:20:38;0.73;;;0.30;;
21979;SDS011;11154;48.558;9.234;2022-09-27T00:22:40;0.30;;;0.22;;
21979;SDS011;11154;48.558;9.234;2022-09-27T00:24:42;0.95;;;0.30;;
21979;SDS011;11154;48.558;9.234;2022-09-27T00:26:43;1.08;;;0.40;;
21979;SDS011;11154;48.558;9.234;2022-09-27T00:28:46;0.40;;;0.20;;
21979;SDS011;11154;48.558;9.234;2022-09-27T00:30:48;0.30;;;0.30;;
21979;SDS011;11154;48.558;9.234;2022-09-27T00:32:51;0.60;;;0.38;;
21979;SDS011;11154;48.558;9.234;2022-09-27T00:34:53;0.82;;;0.20;;
21979;SDS011;11154;48.558;9.234;2022-09-27T00:36:55;0.20;;;0.20;;
21979;SDS011;11154;48.558;9.234;2022-09-27T00:38:57;0.35;;;0.22;;
21979;SDS011;11154;48.558;9.234;2022-09-27T00:41:00;0.10;;;0.10;;
21979;SDS011;11154;48.558;9.234;2022-09-27T00:43:01;0.43;;;0.10;;
21979;SDS011;11154;48.558;9.234;2022-09-27T00:45:08;0.22;;;0.20;;
21979;SDS011;11154;48.558;9.234;2022-09-27T00:49:22;0.32;;;0.30;;
21979;SDS011;11154;48.558;9.234;2022-09-27T00:51:29;0.10;;;0.10;;
21979;SDS011;11154;48.558;9.234;2022-09-27T00:53:34;0.25;;;0.20;;
21979;SDS011;11154;48.558;9.234;2022-09-27T00:55:40;0.50;;;0.28;;
21979;SDS011;11154;48.558;9.234;2022-09-27T00:57:45;0.32;;;0.20;;
21979;SDS011;11154;48.558;9.234;2022-09-27T00:59:48;0.15;;;0.15;;
21979;SDS011;11154;48.558;9.234;2022-09-27T01:01:55;0.20;;;0.13;;
21979;SDS011;11154;48.558;9.234;2022-09-27T01:03:58;0.65;;;0.25;;
21979;SDS011;11154;48.558;9.234;2022-09-27T01:06:05;1.48;;;0.20;;
21979;SDS011;11154;48.558;9.234;2022-09-27T01:08:09;0.10;;;0.10;;
21979;SDS011;11154;48.558;9.234;2022-09-27T01:10:10;0.28;;;0.10;;
21979;SDS011;11154;48.558;9.234;2022-09-27T01:12:15;0.40;;;0.10;;
21979;SDS011;11154;48.558;9.234;2022-09-27T01:14:27;0.20;;;0.20;;
21979;SDS011;11154;48.558;9.234;2022-09-27T01:16:41;0.10;;;0.10;;
21979;SDS011;11154;48.558;9.234;2022-09-27T01:18:51;0.10;;;0.10;;
21979;SDS011;11154;48.558;9.234;2022-09-27T01:21:18;0.32;;;0.30;;
21979;SDS011;11154;48.558;9.234;2022-09-27T01:23:38;1.60;;;0.47;;
21979;SDS011;11154;48.558;9.234;2022-09-27T01:25:56;0.00;;;0.00;;
21979;SDS011;11154;48.558;9.234;2022-09-27T01:28:11;0.30;;;0.10;;
21979;SDS011;11154;48.558;9.234;2022-09-27T01:30:22;2.20;;;0.25;;
21979;SDS011;11154;48.558;9.234;2022-09-27T01:32:28;0.10;;;0.10;;
21979;SDS011;11154;48.558;9.234;2022-09-27T01:34:34;0.35;;;0.15;;
21979;SDS011;11154;48.558;9.234;2022-09-27T01:36:45;0.45;;;0.20;;
21979;SDS011;11154;48.558;9.234;2022-09-27T01:38:56;0.20;;;0.10;;
21979;SDS011;11154;48.558;9.234;2022-09-27T01:41:11;0.10;;;0.10;;
21979;SDS011;11154;48.558;9.234;2022-09-27T01:43:21;0.45;;;0.30;;
21979;SDS011;11154;48.558;9.234;2022-09-27T01:45:29;0.20;;;0.20;;
21979;SDS011;11154;48.558;9.234;2022-09-27T01:47:36;0.10;;;0.10;;
21979;SDS011;11154;48.558;9.234;2022-09-27T01:49:44;0.13;;;0.13;;
21979;SDS011;11154;48.558;9.234;2022-09-27T01:51:53;0.40;;;0.22;;
21979;SDS011;11154;48.558;9.234;2022-09-27T01:54:00;0.25;;;0.22;;
21979;SDS011;11154;48.558;9.234;2022-09-27T01:56:03;0.22;;;0.22;;
21979;SDS011;11154;48.558;9.234;2022-09-27T01:58:11;0.30;;;0.20;;
21979;SDS011;11154;48.558;9.234;2022-09-27T02:00:18;1.65;;;0.25;;
21979;SDS011;11154;48.558;9.234;2022-09-27T02:02:22;1.73;;;0.30;;
21979;SDS011;11154;48.558;9.234;2022-09-27T02:04:28;0.30;;;0.10;;
21979;SDS011;11154;48.558;9.234;2022-09-27T02:06:33;2.85;;;0.30;;
21979;SDS011;11154;48.558;9.234;2022-09-27T02:08:40;0.10;;;0.10;;
21979;SDS011;11154;48.558;9.234;2022-09-27T02:10:47;1.23;;;0.60;;
21979;SDS011;11154;48.558;9.234;2022-09-27T02:12:55;0.82;;;0.10;;
21979;SDS011;11154;48.558;9.234;2022-09-27T02:15:03;0.20;;;0.15;;
21979;SDS011;11154;48.558;9.234;2022-09-27T02:17:10;0.73;;;0.30;;
21979;SDS011;11154;48.558;9.234;2022-09-27T02:19:26;0.30;;;0.10;;
21979;SDS011;11154;48.558;9.234;2022-09-27T02:21:40;0.32;;;0.15;;
21979;SDS011;11154;48.558;9.234;2022-09-27T02:23:46;0.50;;;0.40;;
21979;SDS011;11154;48.558;9.234;2022-09-27T02:25:52;5.13;;;2.30;;
21979;SDS011;11154;48.558;9.234;2022-09-27T02:27:58;1.65;;;1.23;;
21979;SDS011;11154;48.558;9.234;2022-09-27T02:30:10;0.47;;;0.30;;
21979;SDS011;11154;48.558;9.234;2022-09-27T02:32:13;0.52;;;0.40;;
21979;SDS011;11154;48.558;9.234;2022-09-27T02:34:16;0.25;;;0.20;;
21979;SDS011;11154;48.558;9.234;2022-09-27T02:36:22;0.40;;;0.40;;
21979;SDS011;11154;48.558;9.234;2022-09-27T02:38:23;1.23;;;0.30;;
21979;SDS011;11154;48.558;9.234;2022-09-27T02:40:28;0.47;;;0.25;;
21979;SDS011;11154;48.558;9.234;2022-09-27T02:42:32;0.13;;;0.13;;
21979;SDS011;11154;48.558;9.234;2022-09-27T02:44:35;1.70;;;0.13;;
21979;SDS011;11154;48.558;9.234;2022-09-27T02:46:45;0.63;;;0.40;;
21979;SDS011;11154;48.558;9.234;2022-09-27T02:48:56;1.25;;;0.32;;
21979;SDS011;11154;48.558;9.234;2022-09-27T02:51:25;0.22;;;0.20;;
21979;SDS011;11154;48.558;9.234;2022-09-27T02:53:38;0.45;;;0.30;;
21979;SDS011;11154;48.558;9.234;2022-09-27T02:55:48;0.32;;;0.28;;
21979;SDS011;11154;48.558;9.234;2022-09-27T02:58:00;1.20;;;0.35;;
21979;SDS011;11154;48.558;9.234;2022-09-27T03:00:12;1.95;;;0.22;;
21979;SDS011;11154;48.558;9.234;2022-09-27T03:02:18;1.25;;;0.30;;
21979;SDS011;11154;48.558;9.234;2022-09-27T03:04:27;0.47;;;0.15;;
21979;SDS011;11154;48.558;9.234;2022-09-27T03:06:36;0.57;;;0.13;;
21979;SDS011;11154;48.558;9.234;2022-09-27T03:08:39;0.75;;;0.20;;
21979;SDS011;11154;48.558;9.234;2022-09-27T03:10:41;0.17;;;0.17;;
21979;SDS011;11154;48.558;9.234;2022-09-27T03:12:43;0.47;;;0.28;;
21979;SDS011;11154;48.558;9.234;2022-09-27T03:14:45;1.17;;;0.47;;
21979;SDS011;11154;48.558;9.234;2022-09-27T03:16:47;0.75;;;0.20;;
21979;SDS011;11154;48.558;9.234;2022-09-27T03:18:48;0.20;;;0.10;;
21979;SDS011;11154;48.558;9.234;2022-09-27T03:20:51;0.25;;;0.25;;
21979;SDS011;11154;48.558;9.234;2022-09-27T03:22:55;0.25;;;0.25;;
21979;SDS011;11154;48.558;9.234;2022-09-27T03:24:56;0.32;;;0.30;;
21979;SDS011;11154;48.558;9.234;2022-09-27T03:26:58;0.35;;;0.35;;
21979;SDS011;11154;48.558;9.234;2022-09-27T03:29:00;1.48;;;1.20;;
21979;SDS011;11154;48.558;9.234;2022-09-27T03:31:02;2.15;;;1.60;;
21979;SDS011;11154;48.558;9.234;2022-09-27T03:33:03;0.38;;;0.20;;
21979;SDS011;11154;48.558;9.234;2022-09-27T03:35:06;0.57;;;0.30;;
21979;SDS011;11154;48.558;9.234;2022-09-27T03:37:08;0.60;;;0.30;;
21979;SDS011;11154;48.558;9.234;2022-09-27T03:39:11;0.22;;;0.10;;
21979;SDS011;11154;48.558;9.234;2022-09-27T03:41:13;0.43;;;0.40;;
21979;SDS011;11154;48.558;9.234;2022-09-27T03:43:14;1.17;;;0.57;;
21979;SDS011;11154;48.558;9.234;2022-09-27T03:45:16;1.23;;;0.50;;
21979;SDS011;11154;48.558;9.234;2022-09-27T03:47:18;1.35;;;0.47;;
21979;SDS011;11154;48.558;9.234;2022-09-27T03:49:21;1.33;;;0.52;;
21979;SDS011;11154;48.558;9.234;2022-09-27T03:51:23;0.65;;;0.38;;
21979;SDS011;11154;48.558;9.234;2022-09-27T03:53:24;0.25;;;0.25;;
21979;SDS011;11154;48.558;9.234;2022-09-27T03:55:28;0.88;;;0.38;;
21979;SDS011;11154;48.558;9.234;2022-09-27T03:57:30;3.72;;;0.85;;
21979;SDS011;11154;48.558;9.234;2022-09-27T03:59:32;1.45;;;1.13;;
21979;SDS011;11154;48.558;9.234;2022-09-27T04:01:33;2.42;;;0.60;;
21979;SDS011;11154;48.558;9.234;2022-09-27T04:03:37;1.30;;;0.60;;
21979;SDS011;11154;48.558;9.234;2022-09-27T04:05:39;2.22;;;0.70;;
21979;SDS011;11154;48.558;9.234;2022-09-27T04:07:44;4.00;;;0.65;;
21979;SDS011;11154;48.558;9.234;2022-09-27T04:09:47;1.80;;;0.70;;
21979;SDS011;11154;48.558;9.234;2022-09-27T04:11:50;2.95;;;0.98;;
21979;SDS011;11154;48.558;9.234;2022-09-27T04:13:51;1.98;;;0.60;;
21979;SDS011;11154;48.558;9.234;2022-09-27T04:15:55;1.63;;;0.85;;
21979;SDS011;11154;48.558;9.234;2022-09-27T04:17:57;1.52;;;0.65;;
21979;SDS011;11154;48.558;9.234;2022-09-27T04:19:58;2.88;;;0.68;;
21979;SDS011;11154;48.558;9.234;2022-09-27T04:22:02;4.25;;;1.13;;
21979;SDS011;11154;48.558;9.234;2022-09-27T04:24:04;3.95;;;2.05;;
21979;SDS011;11154;48.558;9.234;2022-09-27T04:26:06;3.05;;;1.25;;
21979;SDS011;11154;48.558;9.234;2022-09-27T04:28:09;4.55;;;1.05;;
21979;SDS011;11154;48.558;9.234;2022-09-27T04:30:12;2.67;;;0.85;;
21979;SDS011;11154;48.558;9.234;2022-09-27T04:32:14;5.20;;;1.20;;
21979;SDS011;11154;48.558;9.234;2022-09-27T04:34:16;3.25;;;1.15;;
21979;SDS011;11154;48.558;9.234;2022-09-27T04:36:38;4.03;;;1.08;;
21979;SDS011;11154;48.558;9.234;2022-09-27T04:38:38;3.17;;;0.90;;
21979;SDS011;11154;48.558;9.234;2022-09-27T04:40:40;4.60;;;1.23;;
21979;SDS011;11154;48.558;9.234;2022-09-27T04:42:42;5.40;;;1.23;;
21979;SDS011;11154;48.558;9.234;2022-09-27T04:44:45;3.53;;;1.13;;
21979;SDS011;11154;48.558;9.234;2022-09-27T04:46:48;3.55;;;0.80;;
21979;SDS011;11154;48.558;9.234;2022-09-27T04:48:49;2.47;;;0.88;;
21979;SDS011;11154;48.558;9.234;2022-09-27T04:50:55;3.33;;;1.10;;
21979;SDS011;11154;48.558;9.234;2022-09-27T04:52:57;5.10;;;0.90;;
21979;SDS011;11154;48.558;9.234;2022-09-27T04:54:59;3.13;;;0.80;;
21979;SDS011;11154;48.558;9.234;2022-09-27T04:57:01;4.18;;;0.95;;
21979;SDS011;11154;48.558;9.234;2022-09-27T04:59:03;2.05;;;0.90;;
21979;SDS011;11154;48.558;9.234;2022-09-27T05:01:06;2.50;;;1.00;;
21979;SDS011;11154;48.558;9.234;2022-09-27T05:03:08;3.22;;;0.90;;
21979;SDS011;11154;48.558;9.234;2022-09-27T05:05:10;4.32;;;0.98;;
21979;SDS011;11154;48.558;9.234;2022-09-27T05:07:12;3.75;;;0.88;;
21979;SDS011;11154;48.558;9.234;2022-09-27T05:09:14;2.28;;;0.80;;
21979;SDS011;11154;48.558;9.234;2022-09-27T05:11:16;2.05;;;0.98;;
21979;SDS011;11154;48.558;9.234;2022-09-27T05:13:17;3.22;;;1.10;;
21979;SDS011;11154;48.558;9.234;2022-09-27T05:15:19;3.42;;;1.10;;
21979;SDS011;11154;48.558;9.234;2022-09-27T05:17:22;2.88;;;0.95;;
21979;SDS011;11154;48.558;9.234;2022-09-27T05:19:24;1.98;;;0.80;;
21979;SDS011;11154;48.558;9.234;2022-09-27T05:21:26;3.80;;;1.00;;
21979;SDS011;11154;48.558;9.234;2022-09-27T05:23:28;4.38;;;1.00;;
21979;SDS011;11154;48.558;9.234;2022-09-27T05:25:30;3.58;;;1.00;;
21979;SDS011;11154;48.558;9.234;2022-09-27T05:27:32;4.10;;;1.02;;
21979;SDS011;11154;48.558;9.234;2022-09-27T05:29:34;5.32;;;1.20;;
21979;SDS011;11154;48.558;9.234;2022-09-27T05:31:36;3.33;;;1.55;;
21979;SDS011;11154;48.558;9.234;2022-09-27T05:33:39;2.83;;;0.98;;
21979;SDS011;11154;48.558;9.234;2022-09-27T05:35:41;4.65;;;1.30;;
21979;SDS011;11154;48.558;9.234;2022-09-27T05:37:50;2.63;;;1.00;;
21979;SDS011;11154;48.558;9.234;2022-09-27T05:39:52;4.10;;;1.33;;
21979;SDS011;11154;48.558;9.234;2022-09-27T05:41:54;3.67;;;1.30;;
21979;SDS011;11154;48.558;9.234;2022-09-27T05:43:56;3.13;;;1.10;;
21979;SDS011;11154;48.558;9.234;2022-09-27T05:45:58;3.28;;;1.60;;
21979;SDS011;11154;48.558;9.234;2022-09-27T05:48:00;2.88;;;1.20;;
21979;SDS011;11154;48.558;9.234;2022-09-27T05:50:04;4.03;;;2.35;;
21979;SDS011;11154;48.558;9.234;2022-09-27T05:52:08;6.03;;;1.20;;
21979;SDS011;11154;48.558;9.234;2022-09-27T05:54:09;2.40;;;1.27;;
21979;SDS011;11154;48.558;9.234;2022-09-27T05:56:11;1.75;;;0.73;;
21979;SDS011;11154;48.558;9.234;2022-09-27T05:58:13;4.10;;;1.20;;
21979;SDS011;11154;48.558;9.234;2022-09-27T06:00:16;2.40;;;0.93;;
21979;SDS011;11154;48.558;9.234;2022-09-27T06:02:17;3.17;;;1.73;;
21979;SDS011;11154;48.558;9.234;2022-09-27T06:04:19;3.72;;;1.00;;
21979;SDS011;11154;48.558;9.234;2022-09-27T06:06:23;3.65;;;1.25;;
21979;SDS011;11154;48.558;9.234;2022-09-27T06:08:25;2.50;;;1.10;;
21979;SDS011;11154;48.558;9.234;2022-09-27T06:10:27;2.13;;;0.75;;
21979;SDS011;11154;48.558;9.234;2022-09-27T06:12:29;2.42;;;1.10;;
21979;SDS011;11154;48.558;9.234;2022-09-27T06:14:31;4.85;;;1.30;;
21979;SDS011;11154;48.558;9.234;2022-09-27T06:16:34;1.63;;;0.93;;
21979;SDS011;11154;48.558;9.234;2022-09-27T06:18:36;3.47;;;1.10;;
21979;SDS011;11154;48.558;9.234;2022-09-27T06:20:38;1.17;;;0.57;;
21979;SDS011;11154;48.558;9.234;2022-09-27T06:22:43;3.83;;;1.65;;
21979;SDS011;11154;48.558;9.234;2022-09-27T06:24:46;3.63;;;1.00;;
21979;SDS011;11154;48.558;9.234;2022-09-27T06:26:47;2.70;;;1.00;;
21979;SDS011;11154;48.558;9.234;2022-09-27T06:28:49;2.85;;;1.10;;
21979;SDS011;11154;48.558;9.234;2022-09-27T06:30:51;2.83;;;1.10;;
21979;SDS011;11154;48.558;9.234;2022-09-27T06:32:56;1.25;;;0.85;;
21979;SDS011;11154;48.558;9.234;2022-09-27T06:34:59;2.03;;;0.77;;
21979;SDS011;11154;48.558;9.234;2022-09-27T06:37:04;3.08;;;1.90;;
21979;SDS011;11154;48.558;9.234;2022-09-27T06:39:07;1.92;;;1.00;;
21979;SDS011;11154;48.558;9.234;2022-09-27T06:41:09;2.17;;;1.00;;
21979;SDS011;11154;48.558;9.234;2022-09-27T06:43:12;2.90;;;1.35;;
21979;SDS011;11154;48.558;9.234;2022-09-27T06:45:15;1.15;;;0.63;;
21979;SDS011;11154;48.558;9.234;2022-09-27T06:47:17;1.65;;;0.80;;
21979;SDS011;11154;48.558;9.234;2022-09-27T06:49:18;2.60;;;1.05;;
21979;SDS011;11154;48.558;9.234;2022-09-27T06:51:21;2.58;;;1.17;;
21979;SDS011;11154;48.558;9.234;2022-09-27T06:53:24;1.60;;;1.27;;
21979;SDS011;11154;48.558;9.234;2022-09-27T06:55:27;3.55;;;1.10;;
21979;SDS011;11154;48.558;9.234;2022-09-27T06:57:29;2.85;;;1.67;;
21979;SDS011;11154;48.558;9.234;2022-09-27T06:59:49;5.68;;;1.48;;
21979;SDS011;11154;48.558;9.234;2022-09-27T07:02:08;3.27;;;1.97;;
21979;SDS011;11154;48.558;9.234;2022-09-27T07:04:10;2.10;;;1.10;;
21979;SDS011;11154;48.558;9.234;2022-09-27T07:06:15;3.95;;;2.53;;
21979;SDS011;11154;48.558;9.234;2022-09-27T07:08:19;3.08;;;1.35;;
21979;SDS011;11154;48.558;9.234;2022-09-27T07:10:21;2.70;;;1.23;;
21979;SDS011;11154;48.558;9.234;2022-09-27T07:12:24;3.28;;;1.50;;
21979;SDS011;11154;48.558;9.234;2022-09-27T07:14:26;2.30;;;2.10;;
21979;SDS011;11154;48.558;9.234;2022-09-27T07:16:27;4.03;;;2.92;;
21979;SDS011;11154;48.558;9.234;2022-09-27T07:18:30;8.98;;;4.47;;
21979;SDS011;11154;48.558;9.234;2022-09-27T07:20:32;12.70;;;7.22;;
21979;SDS011;11154;48.558;9.234;2022-09-27T07:22:38;8.07;;;5.20;;
21979;SDS011;11154;48.558;9.234;2022-09-27T07:24:41;7.38;;;4.30;;
21979;SDS011;11154;48.558;9.234;2022-09-27T07:26:43;12.52;;;6.50;;
21979;SDS011;11154;48.558;9.234;2022-09-27T07:28:47;9.18;;;5.43;;
21979;SDS011;11154;48.558;9.234;2022-09-27T07:30:53;8.52;;;5.20;;
21979;SDS011;11154;48.558;9.234;2022-09-27T07:32:56;1.92;;;1.13;;
21979;SDS011;11154;48.558;9.234;2022-09-27T07:34:58;1.27;;;0.88;;
21979;SDS011;11154;48.558;9.234;2022-09-27T07:37:00;2.17;;;1.30;;
21979;SDS011;11154;48.558;9.234;2022-09-27T07:39:04;3.97;;;2.42;;
21979;SDS011;11154;48.558;9.234;2022-09-27T07:41:07;1.55;;;1.05;;
21979;SDS011;11154;48.558;9.234;2022-09-27T07:43:10;1.45;;;0.90;;
21979;SDS011;11154;48.558;9.234;2022-09-27T07:45:13;1.48;;;0.77;;
21979;SDS011;11154;48.558;9.234;2022-09-27T07:47:16;1.25;;;0.73;;
21979;SDS011;11154;48.558;9.234;2022-09-27T07:49:19;0.52;;;0.40;;
21979;SDS011;11154;48.558;9.234;2022-09-27T07:51:21;0.98;;;0.40;;
21979;SDS011;11154;48.558;9.234;2022-09-27T07:53:22;1.27;;;0.60;;
21979;SDS011;11154;48.558;9.234;2022-09-27T07:55:24;0.98;;;0.50;;
21979;SDS011;11154;48.558;9.234;2022-09-27T07:57:26;2.53;;;1.13;;
21979;SDS011;11154;48.558;9.234;2022-09-27T07:59:29;1.13;;;0.70;;
21979;SDS011;11154;48.558;9.234;2022-09-27T08:01:32;1.60;;;0.88;;
21979;SDS011;11154;48.558;9.234;2022-09-27T08:03:34;3.83;;;0.57;;
21979;SDS011;11154;48.558;9.234;2022-09-27T08:05:37;1.17;;;1.02;;
21979;SDS011;11154;48.558;9.234;2022-09-27T08:07:39;2.00;;;0.60;;
21979;SDS011;11154;48.558;9.234;2022-09-27T08:09:41;0.93;;;0.47;;
21979;SDS011;11154;48.558;9.234;2022-09-27T08:11:43;0.75;;;0.60;;
21979;SDS011;11154;48.558;9.234;2022-09-27T08:13:45;1.10;;;0.30;;
21979;SDS011;11154;48.558;9.234;2022-09-27T08:15:47;2.40;;;1.50;;
21979;SDS011;11154;48.558;9.234;2022-09-27T08:17:53;2.15;;;1.50;;
21979;SDS011;11154;48.558;9.234;2022-09-27T08:19:55;1.42;;;1.02;;
21979;SDS011;11154;48.558;9.234;2022-09-27T08:21:57;2.08;;;1.65;;
21979;SDS011;11154;48.558;9.234;2022-09-27T08:23:58;2.13;;;1.83;;
21979;SDS011;11154;48.558;9.234;2022-09-27T08:26:00;2.92;;;1.67;;
21979;SDS011;11154;48.558;9.234;2022-09-27T08:28:02;3.65;;;1.80;;
21979;SDS011;11154;48.558;9.234;2022-09-27T08:30:05;3.33;;;1.48;;
21979;SDS011;11154;48.558;9.234;2022-09-27T08:32:07;2.35;;;1.30;;
21979;SDS011;11154;48.558;9.234;2022-09-27T08:34:11;1.92;;;1.20;;
21979;SDS011;11154;48.558;9.234;2022-09-27T08:36:13;3.80;;;1.20;;
21979;SDS011;11154;48.558;9.234;2022-09-27T08:38:15;1.25;;;1.15;;
21979;SDS011;11154;48.558;9.234;2022-09-27T08:40:17;0.77;;;0.40;;
21979;SDS011;11154;48.558;9.234;2022-09-27T08:42:24;2.45;;;1.10;;
21979;SDS011;11154;48.558;9.234;2022-09-27T08:44:33;0.95;;;0.65;;
21979;SDS011;11154;48.558;9.234;2022-09-27T08:46:43;0.60;;;0.60;;
21979;SDS011;11154;48.558;9.234;2022-09-27T08:48:55;1.17;;;1.08;;
21979;SDS011;11154;48.558;9.234;2022-09-27T08:51:02;2.25;;;2.05;;
21979;SDS011;11154;48.558;9.234;2022-09-27T08:53:13;7.65;;;5.68;;
21979;SDS011;11154;48.558;9.234;2022-09-27T08:55:21;8.75;;;5.88;;
21979;SDS011;11154;48.558;9.234;2022-09-27T08:57:28;1.40;;;1.20;;
21979;SDS011;11154;48.558;9.234;2022-09-27T08:59:30;2.05;;;0.70;;
21979;SDS011;11154;48.558;9.234;2022-09-27T09:01:37;1.65;;;0.55;;
21979;SDS011;11154;48.558;9.234;2022-09-27T09:03:43;1.08;;;0.50;;
21979;SDS011;11154;48.558;9.234;2022-09-27T09:05:51;0.32;;;0.30;;
21979;SDS011;11154;48.558;9.234;2022-09-27T09:08:11;0.13;;;0.13;;
21979;SDS011;11154;48.558;9.234;2022-09-27T09:10:27;0.47;;;0.47;;
21979;SDS011;11154;48.558;9.234;2022-09-27T09:12:59;1.02;;;0.43;;
21979;SDS011;11154;48.558;9.234;2022-09-27T09:15:11;0.95;;;0.47;;
21979;SDS011;11154;48.558;9.234;2022-09-27T09:17:22;0.88;;;0.57;;
21979;SDS011;11154;48.558;9.234;2022-09-27T09:19:42;2.83;;;0.30;;
21979;SDS011;11154;48.558;9.234;2022-09-27T09:21:58;1.15;;;0.55;;
21979;SDS011;11154;48.558;9.234;2022-09-27T09:26:45;0.47;;;0.17;;
21979;SDS011;11154;48.558;9.234;2022-09-27T09:29:00;0.25;;;0.25;;
21979;SDS011;11154;48.558;9.234;2022-09-27T09:31:10;0.47;;;0.30;;
21979;SDS011;11154;48.558;9.234;2022-09-27T09:33:21;1.50;;;0.17;;
21979;SDS011;11154;48.558;9.234;2022-09-27T09:35:28;3.03;;;0.60;;
21979;SDS011;11154;48.558;9.234;2022-09-27T09:37:37;0.98;;;0.80;;
21979;SDS011;11154;48.558;9.234;2022-09-27T09:39:43;0.63;;;0.63;;
21979;SDS011;11154;48.558;9.234;2022-09-27T09:41:51;1.00;;;0.60;;
21979;SDS011;11154;48.558;9.234;2022-09-27T09:44:03;1.48;;;0.77;;
21979;SDS011;11154;48.558;9.234;2022-09-27T09:48:27;1.55;;;0.57;;
21979;SDS011;11154;48.558;9.234;2022-09-27T09:50:34;0.70;;;0.43;;
21979;SDS011;11154;48.558;9.234;2022-09-27T09:52:42;1.38;;;0.38;;
21979;SDS011;11154;48.558;9.234;2022-09-27T09:54:52;0.57;;;0.38;;
21979;SDS011;11154;48.558;9.234;2022-09-27T09:57:00;0.38;;;0.30;;
21979;SDS011;11154;48.558;9.234;2022-09-27T09:59:09;0.25;;;0.25;;
21979;SDS011;11154;48.558;9.234;2022-09-27T10:01:17;0.75;;;0.40;;
21979;SDS011;11154;48.558;9.234;2022-09-27T10:03:21;1.80;;;1.00;;
21979;SDS011;11154;48.558;9.234;2022-09-27T10:05:24;0.43;;;0.40;;
21979;SDS011;11154;48.558;9.234;2022-09-27T10:07:27;0.90;;;0.40;;
21979;SDS011;11154;48.558;9.234;2022-09-27T10:09:32;1.83;;;0.40;;
21979;SDS011;11154;48.558;9.234;2022-09-27T10:11:40;2.33;;;0.75;;
21979;SDS011;11154;48.558;9.234;2022-09-27T10:13:43;1.02;;;0.68;;
21979;SDS011;11154;48.558;9.234;2022-09-27T10:15:46;2.47;;;0.52;;
21979;SDS011;11154;48.558;9.234;2022-09-27T10:18:02;3.72;;;0.60;;
21979;SDS011;11154;48.558;9.234;2022-09-27T10:20:04;2.58;;;0.43;;
21979;SDS011;11154;48.558;9.234;2022-09-27T10:22:10;1.48;;;0.63;;
21979;SDS011;11154;48.558;9.234;2022-09-27T10:24:17;2.33;;;0.77;;
21979;SDS011;11154;48.558;9.234;2022-09-27T10:26:19;3.17;;;1.30;;
21979;SDS011;11154;48.558;9.234;2022-09-27T10:28:33;2.08;;;0.95;;
21979;SDS011;11154;48.558;9.234;2022-09-27T10:30:37;2.65;;;0.85;;
21979;SDS011;11154;48.558;9.234;2022-09-27T10:32:39;1.48;;;0.60;;
21979;SDS011;11154;48.558;9.234;2022-09-27T10:34:42;1.60;;;0.65;;
21979;SDS011;11154;48.558;9.234;2022-09-27T10:36:44;2.38;;;0.98;;
21979;SDS011;11154;48.558;9.234;2022-09-27T10:38:50;1.60;;;0.73;;
21979;SDS011;11154;48.558;9.234;2022-09-27T10:40:53;1.25;;;0.95;;
21979;SDS011;11154;48.558;9.234;2022-09-27T10:42:57;2.30;;;1.00;;
21979;SDS011;11154;48.558;9.234;2022-09-27T10:47:37;2.97;;;0.80;;
21979;SDS011;11154;48.558;9.234;2022-09-27T10:49:39;2.58;;;1.00;;
21979;SDS011;11154;48.558;9.234;2022-09-27T10:51:42;3.33;;;1.23;;
21979;SDS011;11154;48.558;9.234;2022-09-27T10:53:45;1.70;;;0.73;;
21979;SDS011;11154;48.558;9.234;2022-09-27T10:55:48;2.85;;;0.70;;
21979;SDS011;11154;48.558;9.234;2022-09-27T10:57:52;2.28;;;0.93;;
21979;SDS011;11154;48.558;9.234;2022-09-27T10:59:55;3.75;;;1.00;;
21979;SDS011;11154;48.558;9.234;2022-09-27T11:02:01;5.55;;;0.95;;
21979;SDS011;11154;48.558;9.234;2022-09-27T11:04:04;1.33;;;0.50;;
21979;SDS011;11154;48.558;9.234;2022-09-27T11:06:17;2.97;;;0.80;;
21979;SDS011;11154;48.558;9.234;2022-09-27T11:08:21;2.47;;;0.70;;
21979;SDS011;11154;48.558;9.234;2022-09-27T11:10:29;1.10;;;0.57;;
21979;SDS011;11154;48.558;9.234;2022-09-27T11:12:31;2.17;;;0.63;;
21979;SDS011;11154;48.558;9.234;2022-09-27T11:14:35;1.02;;;0.40;;
21979;SDS011;11154;48.558;9.234;2022-09-27T11:16:44;1.10;;;0.57;;
21979;SDS011;11154;48.558;9.234;2022-09-27T11:18:57;0.80;;;0.45;;
21979;SDS011;11154;48.558;9.234;2022-09-27T11:21:10;1.17;;;0.43;;
21979;SDS011;11154;48.558;9.234;2022-09-27T11:23:32;3.70;;;0.57;;
21979;SDS011;11154;48.558;9.234;2022-09-27T11:25:59;0.28;;;0.28;;
21979;SDS011;11154;48.558;9.234;2022-09-27T11:28:15;0.52;;;0.45;;
21979;SDS011;11154;48.558;9.234;2022-09-27T11:30:28;1.70;;;0.45;;
21979;SDS011;11154;48.558;9.234;2022-09-27T11:32:42;2.45;;;0.50;;
21979;SDS011;11154;48.558;9.234;2022-09-27T11:35:12;0.90;;;0.28;;
21979;SDS011;11154;48.558;9.234;2022-09-27T11:37:29;1.77;;;0.52;;
21979;SDS011;11154;48.558;9.234;2022-09-27T11:39:42;0.98;;;0.45;;
21979;SDS011;11154;48.558;9.234;2022-09-27T11:41:59;1.38;;;0.40;;
21979;SDS011;11154;48.558;9.234;2022-09-27T11:44:24;1.98;;;0.60;;
21979;SDS011;11154;48.558;9.234;2022-09-27T11:46:37;2.25;;;0.50;;
21979;SDS011;11154;48.558;9.234;2022-09-27T11:48:45;1.30;;;0.50;;
21979;SDS011;11154;48.558;9.234;2022-09-27T11:51:09;2.05;;;0.40;;
21979;SDS011;11154;48.558;9.234;2022-09-27T11:53:27;1.25;;;0.50;;
21979;SDS011;11154;48.558;9.234;2022-09-27T11:55:43;1.15;;;0.65;;
21979;SDS011;11154;48.558;9.234;2022-09-27T11:57:59;2.25;;;1.42;;
21979;SDS011;11154;48.558;9.234;2022-09-27T12:00:14;3.08;;;1.98;;
21979;SDS011;11154;48.558;9.234;2022-09-27T12:02:27;0.85;;;0.43;;
21979;SDS011;11154;48.558;9.234;2022-09-27T12:04:44;0.73;;;0.40;;
21979;SDS011;11154;48.558;9.234;2022-09-27T12:06:59;1.10;;;0.40;;
21979;SDS011;11154;48.558;9.234;2022-09-27T12:09:08;2.72;;;0.50;;
21979;SDS011;11154;48.558;9.234;2022-09-27T12:11:15;2.33;;;0.52;;
21979;SDS011;11154;48.558;9.234;2022-09-27T12:13:24;1.27;;;0.50;;
21979;SDS011;11154;48.558;9.234;2022-09-27T12:15:33;0.40;;;0.40;;
21979;SDS011;11154;48.558;9.234;2022-09-27T12:17:41;1.10;;;0.60;;
21979;SDS011;11154;48.558;9.234;2022-09-27T12:19:45;1.27;;;0.30;;
21979;SDS011;11154;48.558;9.234;2022-09-27T12:21:49;2.90;;;0.50;;
21979;SDS011;11154;48.558;9.234;2022-09-27T12:23:53;0.80;;;0.35;;
21979;SDS011;11154;48.558;9.234;2022-09-27T12:25:58;1.05;;;0.50;;
21979;SDS011;11154;48.558;9.234;2022-09-27T12:28:07;1.77;;;0.40;;
21979;SDS011;11154;48.558;9.234;2022-09-27T12:30:12;0.65;;;0.47;;
21979;SDS011;11154;48.558;9.234;2022-09-27T12:32:15;2.00;;;0.43;;
21979;SDS011;11154;48.558;9.234;2022-09-27T12:34:23;2.22;;;0.70;;
21979;SDS011;11154;48.558;9.234;2022-09-27T12:36:30;2.30;;;0.32;;
21979;SDS011;11154;48.558;9.234;2022-09-27T12:38:36;0.63;;;0.43;;
21979;SDS011;11154;48.558;9.234;2022-09-27T12:40:44;0.95;;;0.35;;
21979;SDS011;11154;48.558;9.234;2022-09-27T12:42:50;1.58;;;0.80;;
21979;SDS011;11154;48.558;9.234;2022-09-27T12:44:58;1.13;;;0.70;;
21979;SDS011;11154;48.558;9.234;2022-09-27T12:47:02;3.47;;;3.15;;